sensor_id;sensor_type;location;lat;lon;timestamp;temperature;humidity
4566;DHT22;2295;51.050;14.608;2022-11-23T00:01:47;1.30;99.90
4566;DHT22;2295;51.050;14.608;2022-11-23T00:04:23;1.30;99.90
4566;DHT22;2295;51.050;14.608;2022-11-23T00:07:17;1.40;99.90
4566;DHT22;2295;51.050;14.608;2022-11-23T00:10:03;1.40;99.90
4566;DHT22;2295;51.050;14.608;2022-11-23T00:12:59;1.40;99.90
4566;DHT22;2295;51.050;14.608;2022-11-23T00:15:55;1.50;99.90
4566;DHT22;2295;51.050;14.608;2022-11-23T00:18:25;1.50;99.90
4566;DHT22;2295;51.050;14.608;2022-11-23T00:20:53;1.50;99.90
4566;DHT22;2295;51.050;14.608;2022-11-23T00:23:22;1.50;99.90
4566;DHT22;2295;51.050;14.608;2022-11-23T00:25:51;1.50;99.90
4566;DHT22;2295;51.050;14.608;2022-11-23T00:28:36;1.50;99.90
4566;DHT22;2295;51.050;14.608;2022-11-23T00:31:20;1.50;99.90
4566;DHT22;2295;51.050;14.608;2022-11-23T00:34:07;1.50;99.90
4566;DHT22;2295;51.050;14.608;2022-11-23T00:36:35;1.50;99.90
4566;DHT22;2295;51.050;14.608;2022-11-23T00:39:28;1.40;99.90
4566;DHT22;2295;51.050;14.608;2022-11-23T00:42:08;1.40;99.90
4566;DHT22;2295;51.050;14.608;2022-11-23T00:44:38;1.40;99.90
4566;DHT22;2295;51.050;14.608;2022-11-23T00:47:07;1.40;99.90
4566;DHT22;2295;51.050;14.608;2022-11-23T00:49:54;1.40;99.90
4566;DHT22;2295;51.050;14.608;2022-11-23T00:53:08;1.50;99.90
4566;DHT22;2295;51.050;14.608;2022-11-23T00:55:39;1.50;99.90
4566;DHT22;2295;51.050;14.608;2022-11-23T00:58:23;1.40;99.90
4566;DHT22;2295;51.050;14.608;2022-11-23T01:01:09;1.40;99.90
4566;DHT22;2295;51.050;14.608;2022-11-23T01:03:45;1.30;99.90
4566;DHT22;2295;51.050;14.608;2022-11-23T01:06:43;1.30;99.90
4566;DHT22;2295;51.050;14.608;2022-11-23T01:09:44;1.20;99.90
4566;DHT22;2295;51.050;14.608;2022-11-23T01:12:28;1.20;99.90
4566;DHT22;2295;51.050;14.608;2022-11-23T01:15:03;1.10;99.90
4566;DHT22;2295;51.050;14.608;2022-11-23T01:17:41;1.10;99.90
4566;DHT22;2295;51.050;14.608;2022-11-23T01:20:23;1.10;99.90
4566;DHT22;2295;51.050;14.608;2022-11-23T01:22:52;1.10;99.90
4566;DHT22;2295;51.050;14.608;2022-11-23T01:25:27;1.10;99.90
4566;DHT22;2295;51.050;14.608;2022-11-23T01:27:55;1.20;99.90
4566;DHT22;2295;51.050;14.608;2022-11-23T01:33:51;1.10;99.90
4566;DHT22;2295;51.050;14.608;2022-11-23T01:36:28;1.10;99.90
4566;DHT22;2295;51.050;14.608;2022-11-23T01:39:16;1.10;99.90
4566;DHT22;2295;51.050;14.608;2022-11-23T01:41:45;1.10;99.90
4566;DHT22;2295;51.050;14.608;2022-11-23T01:44:30;1.00;99.90
4566;DHT22;2295;51.050;14.608;2022-11-23T01:47:09;0.90;99.90
4566;DHT22;2295;51.050;14.608;2022-11-23T01:49:44;0.80;99.90
4566;DHT22;2295;51.050;14.608;2022-11-23T01:52:16;0.70;99.90
4566;DHT22;2295;51.050;14.608;2022-11-23T01:55:09;0.70;99.90
4566;DHT22;2295;51.050;14.608;2022-11-23T01:57:48;0.70;99.90
4566;DHT22;2295;51.050;14.608;2022-11-23T02:00:36;0.70;99.90
4566;DHT22;2295;51.050;14.608;2022-11-23T02:03:33;0.70;99.90
4566;DHT22;2295;51.050;14.608;2022-11-23T02:06:39;0.80;99.90
4566;DHT22;2295;51.050;14.608;2022-11-23T02:09:23;0.80;99.90
4566;DHT22;2295;51.050;14.608;2022-11-23T02:12:25;0.80;99.90
4566;DHT22;2295;51.050;14.608;2022-11-23T02:14:58;0.70;99.90
4566;DHT22;2295;51.050;14.608;2022-11-23T02:17:30;0.70;99.90
4566;DHT22;2295;51.050;14.608;2022-11-23T02:20:04;0.60;99.90
4566;DHT22;2295;51.050;14.608;2022-11-23T02:23:04;0.70;99.90
4566;DHT22;2295;51.050;14.608;2022-11-23T02:26:26;0.70;99.90
4566;DHT22;2295;51.050;14.608;2022-11-23T02:29:11;0.80;99.90
4566;DHT22;2295;51.050;14.608;2022-11-23T02:31:46;0.80;99.90
4566;DHT22;2295;51.050;14.608;2022-11-23T02:34:39;0.80;99.90
4566;DHT22;2295;51.050;14.608;2022-11-23T02:37:39;0.80;99.90
4566;DHT22;2295;51.050;14.608;2022-11-23T02:40:27;0.80;99.90
4566;DHT22;2295;51.050;14.608;2022-11-23T02:43:30;0.80;99.90
4566;DHT22;2295;51.050;14.608;2022-11-23T02:46:21;0.80;99.90
4566;DHT22;2295;51.050;14.608;2022-11-23T02:49:19;0.80;99.90
4566;DHT22;2295;51.050;14.608;2022-11-23T02:52:17;0.80;99.90
4566;DHT22;2295;51.050;14.608;2022-11-23T02:54:55;0.80;99.90
4566;DHT22;2295;51.050;14.608;2022-11-23T02:58:37;0.80;99.90
4566;DHT22;2295;51.050;14.608;2022-11-23T03:01:12;0.80;99.90
4566;DHT22;2295;51.050;14.608;2022-11-23T03:03:50;0.70;99.90
4566;DHT22;2295;51.050;14.608;2022-11-23T03:06:30;0.70;99.90
4566;DHT22;2295;51.050;14.608;2022-11-23T03:09:00;0.60;99.90
4566;DHT22;2295;51.050;14.608;2022-11-23T03:11:28;0.50;99.90
4566;DHT22;2295;51.050;14.608;2022-11-23T03:13:57;0.50;99.90
4566;DHT22;2295;51.050;14.608;2022-11-23T03:16:40;0.50;99.90
4566;DHT22;2295;51.050;14.608;2022-11-23T03:19:17;0.40;99.90
4566;DHT22;2295;51.050;14.608;2022-11-23T03:21:46;0.40;99.90
4566;DHT22;2295;51.050;14.608;2022-11-23T03:24:15;0.40;99.90
4566;DHT22;2295;51.050;14.608;2022-11-23T03:26:44;0.40;99.90
4566;DHT22;2295;51.050;14.608;2022-11-23T03:29:13;0.50;99.90
4566;DHT22;2295;51.050;14.608;2022-11-23T03:34:35;0.40;99.90
4566;DHT22;2295;51.050;14.608;2022-11-23T03:37:31;0.50;99.90
4566;DHT22;2295;51.050;14.608;2022-11-23T03:40:04;0.50;99.90
4566;DHT22;2295;51.050;14.608;2022-11-23T03:42:37;0.50;99.90
4566;DHT22;2295;51.050;14.608;2022-11-23T03:45:16;0.50;99.90
4566;DHT22;2295;51.050;14.608;2022-11-23T03:48:09;0.40;99.90
4566;DHT22;2295;51.050;14.608;2022-11-23T03:50:38;0.40;99.90
4566;DHT22;2295;51.050;14.608;2022-11-23T03:53:09;0.50;99.90
4566;DHT22;2295;51.050;14.608;2022-11-23T03:55:45;0.60;99.90
4566;DHT22;2295;51.050;14.608;2022-11-23T03:58:17;0.70;99.90
4566;DHT22;2295;51.050;14.608;2022-11-23T04:01:10;0.70;99.90
4566;DHT22;2295;51.050;14.608;2022-11-23T04:03:42;0.60;99.90
4566;DHT22;2295;51.050;14.608;2022-11-23T04:06:29;0.60;99.90
4566;DHT22;2295;51.050;14.608;2022-11-23T04:09:23;0.60;99.90
4566;DHT22;2295;51.050;14.608;2022-11-23T04:11:52;0.70;99.90
4566;DHT22;2295;51.050;14.608;2022-11-23T04:14:36;0.70;99.90
4566;DHT22;2295;51.050;14.608;2022-11-23T04:17:14;0.80;99.90
4566;DHT22;2295;51.050;14.608;2022-11-23T04:19:53;0.70;99.90
4566;DHT22;2295;51.050;14.608;2022-11-23T04:22:27;0.70;99.90
4566;DHT22;2295;51.050;14.608;2022-11-23T04:25:16;0.70;99.90
4566;DHT22;2295;51.050;14.608;2022-11-23T04:28:12;0.80;99.90
4566;DHT22;2295;51.050;14.608;2022-11-23T04:31:08;0.90;99.90
4566;DHT22;2295;51.050;14.608;2022-11-23T04:34:03;0.80;99.90
4566;DHT22;2295;51.050;14.608;2022-11-23T04:36:49;0.80;99.90
4566;DHT22;2295;51.050;14.608;2022-11-23T04:39:24;0.80;99.90
4566;DHT22;2295;51.050;14.608;2022-11-23T04:42:19;0.70;99.90
4566;DHT22;2295;51.050;14.608;2022-11-23T04:44:47;0.70;99.90
4566;DHT22;2295;51.050;14.608;2022-11-23T04:47:16;0.60;99.90
4566;DHT22;2295;51.050;14.608;2022-11-23T04:49:50;0.50;99.90
4566;DHT22;2295;51.050;14.608;2022-11-23T04:52:20;0.50;99.90
4566;DHT22;2295;51.050;14.608;2022-11-23T04:54:49;0.50;99.90
4566;DHT22;2295;51.050;14.608;2022-11-23T04:57:17;0.50;99.90
4566;DHT22;2295;51.050;14.608;2022-11-23T04:59:51;0.50;99.90
4566;DHT22;2295;51.050;14.608;2022-11-23T05:02:25;0.50;99.90
4566;DHT22;2295;51.050;14.608;2022-11-23T05:05:08;0.40;99.90
4566;DHT22;2295;51.050;14.608;2022-11-23T05:07:46;0.50;99.90
4566;DHT22;2295;51.050;14.608;2022-11-23T05:12:58;0.50;99.90
4566;DHT22;2295;51.050;14.608;2022-11-23T05:15:36;0.50;99.90
4566;DHT22;2295;51.050;14.608;2022-11-23T05:18:56;0.50;99.90
4566;DHT22;2295;51.050;14.608;2022-11-23T05:22:09;0.40;99.90
4566;DHT22;2295;51.050;14.608;2022-11-23T05:25:03;0.40;99.90
4566;DHT22;2295;51.050;14.608;2022-11-23T05:27:48;0.50;99.90
4566;DHT22;2295;51.050;14.608;2022-11-23T05:30:17;0.50;99.90
4566;DHT22;2295;51.050;14.608;2022-11-23T05:32:49;0.50;99.90
4566;DHT22;2295;51.050;14.608;2022-11-23T05:35:18;0.60;99.90
4566;DHT22;2295;51.050;14.608;2022-11-23T05:37:51;0.60;99.90
4566;DHT22;2295;51.050;14.608;2022-11-23T05:40:21;0.70;99.90
4566;DHT22;2295;51.050;14.608;2022-11-23T05:42:53;0.70;99.90
4566;DHT22;2295;51.050;14.608;2022-11-23T05:45:44;0.80;99.90
4566;DHT22;2295;51.050;14.608;2022-11-23T05:48:32;0.80;99.90
4566;DHT22;2295;51.050;14.608;2022-11-23T05:51:40;0.90;99.90
4566;DHT22;2295;51.050;14.608;2022-11-23T05:54:38;0.90;99.90
4566;DHT22;2295;51.050;14.608;2022-11-23T05:57:18;0.90;99.90
4566;DHT22;2295;51.050;14.608;2022-11-23T06:00:04;0.80;99.90
4566;DHT22;2295;51.050;14.608;2022-11-23T06:02:47;0.80;99.90
4566;DHT22;2295;51.050;14.608;2022-11-23T06:05:17;0.80;99.90
4566;DHT22;2295;51.050;14.608;2022-11-23T06:07:45;0.80;99.90
4566;DHT22;2295;51.050;14.608;2022-11-23T06:10:20;0.70;99.90
4566;DHT22;2295;51.050;14.608;2022-11-23T06:12:50;0.80;99.90
4566;DHT22;2295;51.050;14.608;2022-11-23T06:15:18;0.80;99.90
4566;DHT22;2295;51.050;14.608;2022-11-23T06:17:47;0.80;99.90
4566;DHT22;2295;51.050;14.608;2022-11-23T06:20:16;0.80;99.90
4566;DHT22;2295;51.050;14.608;2022-11-23T06:22:51;0.90;99.90
4566;DHT22;2295;51.050;14.608;2022-11-23T06:25:30;1.00;99.90
4566;DHT22;2295;51.050;14.608;2022-11-23T06:28:22;1.00;99.90
4566;DHT22;2295;51.050;14.608;2022-11-23T06:30:51;1.00;99.90
4566;DHT22;2295;51.050;14.608;2022-11-23T06:33:24;1.00;99.90
4566;DHT22;2295;51.050;14.608;2022-11-23T06:35:54;0.90;99.90
4566;DHT22;2295;51.050;14.608;2022-11-23T06:38:26;0.90;99.90
4566;DHT22;2295;51.050;14.608;2022-11-23T06:40:56;0.80;99.90
4566;DHT22;2295;51.050;14.608;2022-11-23T06:43:37;0.80;99.90
4566;DHT22;2295;51.050;14.608;2022-11-23T06:46:09;0.80;99.90
4566;DHT22;2295;51.050;14.608;2022-11-23T06:48:38;0.80;99.90
4566;DHT22;2295;51.050;14.608;2022-11-23T06:51:07;0.80;99.90
4566;DHT22;2295;51.050;14.608;2022-11-23T06:53:49;0.90;99.90
4566;DHT22;2295;51.050;14.608;2022-11-23T06:56:26;1.00;99.90
4566;DHT22;2295;51.050;14.608;2022-11-23T06:59:07;0.90;99.90
4566;DHT22;2295;51.050;14.608;2022-11-23T07:01:35;1.00;99.90
4566;DHT22;2295;51.050;14.608;2022-11-23T07:04:05;1.00;99.90
4566;DHT22;2295;51.050;14.608;2022-11-23T07:06:46;1.00;99.90
4566;DHT22;2295;51.050;14.608;2022-11-23T07:09:35;1.00;99.90
4566;DHT22;2295;51.050;14.608;2022-11-23T07:12:10;1.00;99.90
4566;DHT22;2295;51.050;14.608;2022-11-23T07:14:48;1.10;99.90
4566;DHT22;2295;51.050;14.608;2022-11-23T07:17:18;1.10;99.90
4566;DHT22;2295;51.050;14.608;2022-11-23T07:19:56;1.20;99.90
4566;DHT22;2295;51.050;14.608;2022-11-23T07:22:24;1.30;99.90
4566;DHT22;2295;51.050;14.608;2022-11-23T07:25:01;1.40;99.90
4566;DHT22;2295;51.050;14.608;2022-11-23T07:27:29;1.50;99.90
4566;DHT22;2295;51.050;14.608;2022-11-23T07:30:13;1.60;99.90
4566;DHT22;2295;51.050;14.608;2022-11-23T07:33:00;1.70;99.90
4566;DHT22;2295;51.050;14.608;2022-11-23T07:35:29;1.80;99.90
4566;DHT22;2295;51.050;14.608;2022-11-23T07:38:02;1.80;99.90
4566;DHT22;2295;51.050;14.608;2022-11-23T07:41:00;1.90;99.90
4566;DHT22;2295;51.050;14.608;2022-11-23T07:43:46;2.10;99.90
4566;DHT22;2295;51.050;14.608;2022-11-23T07:49:57;2.20;99.90
4566;DHT22;2295;51.050;14.608;2022-11-23T07:52:36;2.30;99.90
4566;DHT22;2295;51.050;14.608;2022-11-23T07:55:25;2.40;99.90
4566;DHT22;2295;51.050;14.608;2022-11-23T07:58:15;2.50;99.90
4566;DHT22;2295;51.050;14.608;2022-11-23T08:00:47;2.60;99.90
4566;DHT22;2295;51.050;14.608;2022-11-23T08:03:20;2.60;99.90
4566;DHT22;2295;51.050;14.608;2022-11-23T08:06:02;2.60;99.90
4566;DHT22;2295;51.050;14.608;2022-11-23T08:08:51;2.70;99.90
4566;DHT22;2295;51.050;14.608;2022-11-23T08:11:34;2.80;99.90
4566;DHT22;2295;51.050;14.608;2022-11-23T08:14:02;2.80;99.90
4566;DHT22;2295;51.050;14.608;2022-11-23T08:16:50;2.80;99.90
4566;DHT22;2295;51.050;14.608;2022-11-23T08:19:23;2.90;99.90
4566;DHT22;2295;51.050;14.608;2022-11-23T08:21:51;3.00;99.90
4566;DHT22;2295;51.050;14.608;2022-11-23T08:24:20;3.00;99.90
4566;DHT22;2295;51.050;14.608;2022-11-23T08:26:51;3.00;99.90
4566;DHT22;2295;51.050;14.608;2022-11-23T08:29:19;3.00;99.90
4566;DHT22;2295;51.050;14.608;2022-11-23T08:31:48;3.10;99.90
4566;DHT22;2295;51.050;14.608;2022-11-23T08:34:20;3.10;99.90
4566;DHT22;2295;51.050;14.608;2022-11-23T08:37:30;3.20;99.90
4566;DHT22;2295;51.050;14.608;2022-11-23T08:40:08;3.20;99.90
4566;DHT22;2295;51.050;14.608;2022-11-23T08:42:36;3.20;99.90
4566;DHT22;2295;51.050;14.608;2022-11-23T08:45:06;3.20;99.90
4566;DHT22;2295;51.050;14.608;2022-11-23T08:47:34;3.20;99.90
4566;DHT22;2295;51.050;14.608;2022-11-23T08:50:04;3.20;99.90
4566;DHT22;2295;51.050;14.608;2022-11-23T08:52:34;3.20;99.90
4566;DHT22;2295;51.050;14.608;2022-11-23T08:55:09;3.20;99.90
4566;DHT22;2295;51.050;14.608;2022-11-23T08:58:26;3.10;99.90
4566;DHT22;2295;51.050;14.608;2022-11-23T09:01:28;3.10;99.90
4566;DHT22;2295;51.050;14.608;2022-11-23T09:04:11;3.00;99.90
4566;DHT22;2295;51.050;14.608;2022-11-23T09:06:47;2.90;99.90
4566;DHT22;2295;51.050;14.608;2022-11-23T09:09:20;2.90;99.90
4566;DHT22;2295;51.050;14.608;2022-11-23T09:11:53;2.80;99.90
4566;DHT22;2295;51.050;14.608;2022-11-23T09:14:44;2.80;99.90
4566;DHT22;2295;51.050;14.608;2022-11-23T09:17:18;2.80;99.90
4566;DHT22;2295;51.050;14.608;2022-11-23T09:20:05;2.80;99.90
4566;DHT22;2295;51.050;14.608;2022-11-23T09:22:33;2.80;99.90
4566;DHT22;2295;51.050;14.608;2022-11-23T09:25:12;2.80;99.90
4566;DHT22;2295;51.050;14.608;2022-11-23T09:27:47;2.80;99.90
4566;DHT22;2295;51.050;14.608;2022-11-23T09:30:56;2.80;99.90
4566;DHT22;2295;51.050;14.608;2022-11-23T09:34:10;2.80;99.90
4566;DHT22;2295;51.050;14.608;2022-11-23T09:36:44;2.80;99.90
4566;DHT22;2295;51.050;14.608;2022-11-23T09:39:22;2.70;99.90
4566;DHT22;2295;51.050;14.608;2022-11-23T09:42:17;2.70;99.90
4566;DHT22;2295;51.050;14.608;2022-11-23T09:45:15;2.90;99.90
4566;DHT22;2295;51.050;14.608;2022-11-23T09:50:47;3.00;99.90
4566;DHT22;2295;51.050;14.608;2022-11-23T09:53:36;3.00;99.90
4566;DHT22;2295;51.050;14.608;2022-11-23T09:56:14;3.00;99.90
4566;DHT22;2295;51.050;14.608;2022-11-23T09:58:45;3.00;99.90
4566;DHT22;2295;51.050;14.608;2022-11-23T10:01:15;3.00;99.90
4566;DHT22;2295;51.050;14.608;2022-11-23T10:03:44;3.10;99.90
4566;DHT22;2295;51.050;14.608;2022-11-23T10:06:18;3.10;99.90
4566;DHT22;2295;51.050;14.608;2022-11-23T10:08:56;3.10;99.90
4566;DHT22;2295;51.050;14.608;2022-11-23T10:11:52;3.20;99.90
4566;DHT22;2295;51.050;14.608;2022-11-23T10:14:43;3.30;99.90
4566;DHT22;2295;51.050;14.608;2022-11-23T10:17:22;3.40;99.90
4566;DHT22;2295;51.050;14.608;2022-11-23T10:20:11;3.50;99.90
4566;DHT22;2295;51.050;14.608;2022-11-23T10:22:49;3.40;99.90
4566;DHT22;2295;51.050;14.608;2022-11-23T10:25:20;3.40;99.90
4566;DHT22;2295;51.050;14.608;2022-11-23T10:27:51;3.50;99.90
4566;DHT22;2295;51.050;14.608;2022-11-23T10:30:22;3.60;99.90
4566;DHT22;2295;51.050;14.608;2022-11-23T10:32:55;3.70;99.90
4566;DHT22;2295;51.050;14.608;2022-11-23T10:35:43;3.80;99.90
4566;DHT22;2295;51.050;14.608;2022-11-23T10:38:14;3.90;99.90
4566;DHT22;2295;51.050;14.608;2022-11-23T10:40:55;4.00;99.90
4566;DHT22;2295;51.050;14.608;2022-11-23T10:43:27;4.10;99.90
4566;DHT22;2295;51.050;14.608;2022-11-23T10:46:22;4.30;99.90
4566;DHT22;2295;51.050;14.608;2022-11-23T10:48:51;4.50;99.90
4566;DHT22;2295;51.050;14.608;2022-11-23T10:51:26;4.60;99.90
4566;DHT22;2295;51.050;14.608;2022-11-23T10:53:57;4.70;99.90
4566;DHT22;2295;51.050;14.608;2022-11-23T10:56:32;4.70;99.90
4566;DHT22;2295;51.050;14.608;2022-11-23T10:59:01;4.60;99.90
4566;DHT22;2295;51.050;14.608;2022-11-23T11:01:30;4.60;99.90
4566;DHT22;2295;51.050;14.608;2022-11-23T11:04:01;4.60;99.90
4566;DHT22;2295;51.050;14.608;2022-11-23T11:06:32;4.60;99.90
4566;DHT22;2295;51.050;14.608;2022-11-23T11:09:03;4.70;99.90
4566;DHT22;2295;51.050;14.608;2022-11-23T11:11:44;4.80;99.90
4566;DHT22;2295;51.050;14.608;2022-11-23T11:14:15;4.80;99.90
4566;DHT22;2295;51.050;14.608;2022-11-23T11:16:48;4.80;99.90
4566;DHT22;2295;51.050;14.608;2022-11-23T11:19:24;4.70;99.90
4566;DHT22;2295;51.050;14.608;2022-11-23T11:21:53;4.70;99.90
4566;DHT22;2295;51.050;14.608;2022-11-23T11:24:27;4.60;99.90
4566;DHT22;2295;51.050;14.608;2022-11-23T11:27:00;4.50;99.90
4566;DHT22;2295;51.050;14.608;2022-11-23T11:29:32;4.60;99.90
4566;DHT22;2295;51.050;14.608;2022-11-23T11:32:10;4.60;99.90
4566;DHT22;2295;51.050;14.608;2022-11-23T11:34:44;4.60;99.90
4566;DHT22;2295;51.050;14.608;2022-11-23T11:37:17;4.70;99.90
4566;DHT22;2295;51.050;14.608;2022-11-23T11:39:54;4.80;99.90
4566;DHT22;2295;51.050;14.608;2022-11-23T11:42:29;5.00;99.90
4566;DHT22;2295;51.050;14.608;2022-11-23T11:45:00;5.20;99.90
4566;DHT22;2295;51.050;14.608;2022-11-23T11:47:36;5.30;99.90
4566;DHT22;2295;51.050;14.608;2022-11-23T11:50:16;5.40;99.90
4566;DHT22;2295;51.050;14.608;2022-11-23T11:52:46;5.50;99.90
4566;DHT22;2295;51.050;14.608;2022-11-23T11:55:20;5.60;99.90
4566;DHT22;2295;51.050;14.608;2022-11-23T11:57:54;5.70;99.90
4566;DHT22;2295;51.050;14.608;2022-11-23T12:00:23;5.70;99.90
4566;DHT22;2295;51.050;14.608;2022-11-23T12:03:03;5.60;99.90
4566;DHT22;2295;51.050;14.608;2022-11-23T12:05:38;5.70;99.90
4566;DHT22;2295;51.050;14.608;2022-11-23T12:08:12;5.70;99.90
4566;DHT22;2295;51.050;14.608;2022-11-23T12:10:47;5.70;99.90
4566;DHT22;2295;51.050;14.608;2022-11-23T12:13:18;5.70;99.90
4566;DHT22;2295;51.050;14.608;2022-11-23T12:15:52;5.70;99.90
4566;DHT22;2295;51.050;14.608;2022-11-23T12:18:52;5.60;99.90
4566;DHT22;2295;51.050;14.608;2022-11-23T12:21:35;5.50;99.90
4566;DHT22;2295;51.050;14.608;2022-11-23T12:24:14;5.60;99.90
4566;DHT22;2295;51.050;14.608;2022-11-23T12:26:54;5.60;99.90
4566;DHT22;2295;51.050;14.608;2022-11-23T12:29:34;5.60;99.90
4566;DHT22;2295;51.050;14.608;2022-11-23T12:32:13;5.50;99.90
4566;DHT22;2295;51.050;14.608;2022-11-23T12:35:03;5.50;99.90
4566;DHT22;2295;51.050;14.608;2022-11-23T12:37:47;5.60;99.90
4566;DHT22;2295;51.050;14.608;2022-11-23T12:40:34;5.70;99.90
4566;DHT22;2295;51.050;14.608;2022-11-23T12:43:11;5.60;99.90
4566;DHT22;2295;51.050;14.608;2022-11-23T12:45:52;5.60;99.90
4566;DHT22;2295;51.050;14.608;2022-11-23T12:48:34;5.70;99.90
4566;DHT22;2295;51.050;14.608;2022-11-23T12:51:18;5.70;99.90
4566;DHT22;2295;51.050;14.608;2022-11-23T12:53:53;5.60;99.90
4566;DHT22;2295;51.050;14.608;2022-11-23T12:56:39;5.50;99.90
4566;DHT22;2295;51.050;14.608;2022-11-23T12:59:12;5.50;99.90
4566;DHT22;2295;51.050;14.608;2022-11-23T13:01:43;5.50;99.90
4566;DHT22;2295;51.050;14.608;2022-11-23T13:04:46;5.40;99.90
4566;DHT22;2295;51.050;14.608;2022-11-23T13:07:41;5.30;99.90
4566;DHT22;2295;51.050;14.608;2022-11-23T13:10:24;5.20;99.90
4566;DHT22;2295;51.050;14.608;2022-11-23T13:13:27;5.10;99.90
4566;DHT22;2295;51.050;14.608;2022-11-23T13:16:20;5.00;99.90
4566;DHT22;2295;51.050;14.608;2022-11-23T13:19:11;5.00;99.90
4566;DHT22;2295;51.050;14.608;2022-11-23T13:21:47;4.80;99.90
4566;DHT22;2295;51.050;14.608;2022-11-23T13:24:26;4.80;99.90
4566;DHT22;2295;51.050;14.608;2022-11-23T13:27:28;4.70;99.90
4566;DHT22;2295;51.050;14.608;2022-11-23T13:30:09;4.60;99.90
4566;DHT22;2295;51.050;14.608;2022-11-23T13:32:50;4.60;99.90
4566;DHT22;2295;51.050;14.608;2022-11-23T13:35:53;4.50;99.90
4566;DHT22;2295;51.050;14.608;2022-11-23T13:38:36;4.50;99.90
4566;DHT22;2295;51.050;14.608;2022-11-23T13:44:26;4.40;99.90
4566;DHT22;2295;51.050;14.608;2022-11-23T13:47:14;4.30;99.90
4566;DHT22;2295;51.050;14.608;2022-11-23T13:49:46;4.30;99.90
4566;DHT22;2295;51.050;14.608;2022-11-23T13:52:23;4.20;99.90
4566;DHT22;2295;51.050;14.608;2022-11-23T13:54:55;4.10;99.90
4566;DHT22;2295;51.050;14.608;2022-11-23T13:57:38;4.10;99.90
4566;DHT22;2295;51.050;14.608;2022-11-23T14:00:48;4.10;99.90
4566;DHT22;2295;51.050;14.608;2022-11-23T14:06:42;4.00;99.90
4566;DHT22;2295;51.050;14.608;2022-11-23T14:09:20;4.00;99.90
4566;DHT22;2295;51.050;14.608;2022-11-23T14:12:26;3.90;99.90
4566;DHT22;2295;51.050;14.608;2022-11-23T14:15:09;3.90;99.90
4566;DHT22;2295;51.050;14.608;2022-11-23T14:18:10;3.80;99.90
4566;DHT22;2295;51.050;14.608;2022-11-23T14:20:51;3.70;99.90
4566;DHT22;2295;51.050;14.608;2022-11-23T14:26:44;3.60;99.90
4566;DHT22;2295;51.050;14.608;2022-11-23T14:29:31;3.60;99.90
4566;DHT22;2295;51.050;14.608;2022-11-23T14:32:18;3.60;99.90
4566;DHT22;2295;51.050;14.608;2022-11-23T14:34:59;3.60;99.90
4566;DHT22;2295;51.050;14.608;2022-11-23T14:37:53;3.50;99.90
4566;DHT22;2295;51.050;14.608;2022-11-23T14:40:47;3.50;99.90
4566;DHT22;2295;51.050;14.608;2022-11-23T14:43:20;3.40;99.90
4566;DHT22;2295;51.050;14.608;2022-11-23T14:45:59;3.40;99.90
4566;DHT22;2295;51.050;14.608;2022-11-23T14:48:35;3.30;99.90
4566;DHT22;2295;51.050;14.608;2022-11-23T14:51:10;3.30;99.90
4566;DHT22;2295;51.050;14.608;2022-11-23T14:53:41;3.30;99.90
4566;DHT22;2295;51.050;14.608;2022-11-23T14:56:30;3.30;99.90
4566;DHT22;2295;51.050;14.608;2022-11-23T14:59:03;3.20;99.90
4566;DHT22;2295;51.050;14.608;2022-11-23T15:01:33;3.20;99.90
4566;DHT22;2295;51.050;14.608;2022-11-23T15:04:09;3.20;99.90
4566;DHT22;2295;51.050;14.608;2022-11-23T15:06:44;3.20;99.90
4566;DHT22;2295;51.050;14.608;2022-11-23T15:09:22;3.20;99.90
4566;DHT22;2295;51.050;14.608;2022-11-23T15:12:05;3.20;99.90
4566;DHT22;2295;51.050;14.608;2022-11-23T15:14:33;3.10;99.90
4566;DHT22;2295;51.050;14.608;2022-11-23T15:17:16;3.10;99.90
4566;DHT22;2295;51.050;14.608;2022-11-23T15:19:53;3.00;99.90
4566;DHT22;2295;51.050;14.608;2022-11-23T15:22:23;2.90;99.90
4566;DHT22;2295;51.050;14.608;2022-11-23T15:24:53;2.90;99.90
4566;DHT22;2295;51.050;14.608;2022-11-23T15:27:25;2.90;99.90
4566;DHT22;2295;51.050;14.608;2022-11-23T15:29:57;2.90;99.90
4566;DHT22;2295;51.050;14.608;2022-11-23T15:32:28;2.90;99.90
4566;DHT22;2295;51.050;14.608;2022-11-23T15:35:01;2.80;99.90
4566;DHT22;2295;51.050;14.608;2022-11-23T15:37:33;2.80;99.90
4566;DHT22;2295;51.050;14.608;2022-11-23T15:40:05;2.80;99.90
4566;DHT22;2295;51.050;14.608;2022-11-23T15:42:34;2.80;99.90
4566;DHT22;2295;51.050;14.608;2022-11-23T15:45:03;2.70;99.90
4566;DHT22;2295;51.050;14.608;2022-11-23T15:47:32;2.70;99.90
4566;DHT22;2295;51.050;14.608;2022-11-23T15:50:02;2.70;99.90
4566;DHT22;2295;51.050;14.608;2022-11-23T15:52:34;2.60;99.90
4566;DHT22;2295;51.050;14.608;2022-11-23T15:55:07;2.60;99.90
4566;DHT22;2295;51.050;14.608;2022-11-23T15:57:42;2.70;99.90
4566;DHT22;2295;51.050;14.608;2022-11-23T16:00:21;2.70;99.90
4566;DHT22;2295;51.050;14.608;2022-11-23T16:02:52;2.70;99.90
4566;DHT22;2295;51.050;14.608;2022-11-23T16:05:41;2.70;99.90
4566;DHT22;2295;51.050;14.608;2022-11-23T16:08:24;2.70;99.90
4566;DHT22;2295;51.050;14.608;2022-11-23T16:10:53;2.70;99.90
4566;DHT22;2295;51.050;14.608;2022-11-23T16:13:34;2.60;99.90
4566;DHT22;2295;51.050;14.608;2022-11-23T16:16:05;2.60;99.90
4566;DHT22;2295;51.050;14.608;2022-11-23T16:18:35;2.50;99.90
4566;DHT22;2295;51.050;14.608;2022-11-23T16:21:03;2.60;99.90
4566;DHT22;2295;51.050;14.608;2022-11-23T16:23:41;2.50;99.90
4566;DHT22;2295;51.050;14.608;2022-11-23T16:26:12;2.50;99.90
4566;DHT22;2295;51.050;14.608;2022-11-23T16:28:48;2.50;99.90
4566;DHT22;2295;51.050;14.608;2022-11-23T16:31:26;2.50;99.90
4566;DHT22;2295;51.050;14.608;2022-11-23T16:33:56;2.50;99.90
4566;DHT22;2295;51.050;14.608;2022-11-23T16:36:26;2.50;99.90
4566;DHT22;2295;51.050;14.608;2022-11-23T16:38:56;2.60;99.90
4566;DHT22;2295;51.050;14.608;2022-11-23T16:41:31;2.60;99.90
4566;DHT22;2295;51.050;14.608;2022-11-23T16:43:59;2.60;99.90
4566;DHT22;2295;51.050;14.608;2022-11-23T16:46:28;2.50;99.90
4566;DHT22;2295;51.050;14.608;2022-11-23T16:48:58;2.50;99.90
4566;DHT22;2295;51.050;14.608;2022-11-23T16:51:27;2.50;99.90
4566;DHT22;2295;51.050;14.608;2022-11-23T16:53:59;2.40;99.90
4566;DHT22;2295;51.050;14.608;2022-11-23T16:56:40;2.40;99.90
4566;DHT22;2295;51.050;14.608;2022-11-23T16:59:19;2.40;99.90
4566;DHT22;2295;51.050;14.608;2022-11-23T17:02:26;2.40;99.90
4566;DHT22;2295;51.050;14.608;2022-11-23T17:05:19;2.50;99.90
4566;DHT22;2295;51.050;14.608;2022-11-23T17:07:55;2.50;99.90
4566;DHT22;2295;51.050;14.608;2022-11-23T17:10:28;2.60;99.90
4566;DHT22;2295;51.050;14.608;2022-11-23T17:13:10;2.60;99.90
4566;DHT22;2295;51.050;14.608;2022-11-23T17:15:48;2.60;99.90
4566;DHT22;2295;51.050;14.608;2022-11-23T17:18:25;2.50;99.90
4566;DHT22;2295;51.050;14.608;2022-11-23T17:20:58;2.50;99.90
4566;DHT22;2295;51.050;14.608;2022-11-23T17:23:30;2.40;99.90
4566;DHT22;2295;51.050;14.608;2022-11-23T17:26:32;2.40;99.90
4566;DHT22;2295;51.050;14.608;2022-11-23T17:29:13;2.40;99.90
4566;DHT22;2295;51.050;14.608;2022-11-23T17:31:49;2.40;99.90
4566;DHT22;2295;51.050;14.608;2022-11-23T17:34:18;2.40;99.90
4566;DHT22;2295;51.050;14.608;2022-11-23T17:36:49;2.30;99.90
4566;DHT22;2295;51.050;14.608;2022-11-23T17:39:20;2.30;99.90
4566;DHT22;2295;51.050;14.608;2022-11-23T17:41:51;2.30;99.90
4566;DHT22;2295;51.050;14.608;2022-11-23T17:44:20;2.30;99.90
4566;DHT22;2295;51.050;14.608;2022-11-23T17:46:59;2.20;99.90